Latest Coastal Weather Observations for Larapuna (Eddystone Point)

IDT60701

Issued at 4:55 am EDT Saturday 1 November 2014 (issued every 10 minutes, with the page automatically refreshed every 10 minutes)

About coastal observations | Map of coastal stations | Coastal observations for TAS | Marine services | Other Formats
Station Details ID: 092045 Name: LARAPUNA (EDDYSTONE POINT) Lat: -40.99 Lon: 148.35 Height: 19.7 m
Data from the previous 72 hours. | See also: Recent months at Larapuna (Eddystone Point)
Date/Time
EDT
Temp

°C
Wind Pressure Rain
since 9am
mm
Weather Cloud Vis
km
Sea
Height
m
Swell
Dir
 
Speed
knots
Gust
knots
hPa Trend Height
m
Period
s
Dir
01/04:30am 16.0 WNW 19 26 990.7 - 0.0 - - - - - - -
01/04:13am 16.3 WNW 15 26 990.2 - 0.0 - - - - - - -
01/04:00am 16.2 NW 13 17 990.5 - 0.0 - - - - - - -
01/03:30am 16.8 WNW 13 17 991.0 - 0.0 - - - - - - -
01/03:00am 15.8 WNW 9 12 991.5 - 0.0 - - - - - - -
01/02:30am 16.8 WNW 12 15 991.6 - 0.0 - - - - - - -
01/02:04am 18.0 WNW 13 15 992.6 - 0.0 - - - - - - -
01/02:01am 18.3 NNW 21 32 992.6 - 0.0 - - - - - - -
01/02:00am 18.5 NNW 23 32 992.7 - 0.0 - - - - - - -
01/01:45am 17.1 NNW 17 27 992.3 - 0.0 - - - - - - -
01/01:39am 16.2 WNW 17 23 992.8 - 0.0 - - - - - - -
01/01:30am 16.4 N 23 29 991.2 - 0.0 - - - - - - -
01/01:00am 16.0 N 13 20 992.6 - 0.0 - - - - - - -
01/12:30am 16.0 NNW 13 17 994.0 - 0.0 - - - - - - -
01/12:00am 15.7 N 20 29 994.4 - 0.0 - - - - - - -
 
Date/Time
EDT
Temp

°C
Wind Pressure Rain
since 9am
mm
Weather Cloud Vis
km
Sea
Height
m
Swell
Dir
 
Speed
knots
Gust
knots
hPa Trend Height
m
Period
s
Dir
31/11:56pm 15.4 N 16 27 994.7 - 0.0 - - - - - - -
31/11:30pm 14.9 N 11 16 995.7 - 0.0 - - - - - - -
31/11:00pm 14.6 N 10 13 996.8 - 0.0 - - - - - - -
31/10:30pm 14.8 N 15 18 997.7 - 0.0 - - - - - - -
31/10:00pm 14.7 N 15 19 998.3 - 0.0 - - - - - - -
31/09:30pm 14.6 N 14 17 999.2 - 0.0 - - - - - - -
31/09:00pm 14.5 NNE 13 15 999.7 - 0.0 - - - - - - -
31/08:30pm 14.6 N 13 16 1000.2 - 0.0 - - - - - - -
31/08:00pm 14.4 N 13 16 1000.9 - 0.0 - - - - - - -
31/07:30pm 14.3 N 11 13 1001.2 - 0.0 - - - - - - -
31/07:00pm 14.7 N 11 14 1001.3 - 0.0 - - - - - - -
31/06:30pm 14.9 N 13 15 1001.5 - 0.0 - - - - - - -
31/06:00pm 15.1 N 13 16 1002.1 - 0.0 - - - - - - -
31/05:30pm 16.1 N 14 17 1002.4 - 0.0 - - - - - - -
31/05:00pm 17.8 N 17 19 1002.7 - 0.0 - - - - - - -
31/04:30pm 17.9 N 17 21 1003.0 - 0.0 - - - - - - -
31/04:00pm 18.4 NNW 17 22 1003.1 - 0.0 - - - - - - -
31/03:30pm 18.9 NNW 20 27 1003.5 - 0.0 - - - - - - -
31/03:00pm 17.1 NNW 19 25 1004.0 - 0.0 - - - - - - -
31/02:30pm 17.0 NW 20 26 1004.7 - 0.0 - - - - - - -
31/02:00pm 16.6 NW 20 27 1005.4 - 0.0 - - - - - - -
31/01:30pm 17.0 NW 19 28 1005.2 - 0.0 - - - - - - -
31/01:00pm 16.6 NW 15 26 1006.0 - 0.0 - - - - - - -
31/12:59pm 16.8 NW 15 26 1006.0 - 0.0 - - - - - - -
31/12:30pm 15.6 NW 17 25 1005.9 - 0.0 - - - - - - -
31/12:00pm 15.6 NW 16 26 1006.6 - 0.0 - - - - - - -
31/11:30am 14.6 NW 21 31 1006.9 - 0.0 - - - - - - -
31/11:28am 14.5 NW 21 31 1007.0 - 0.0 - - - - - - -
31/11:00am 14.1 NW 20 27 1007.0 - 0.0 - - - - - - -
31/10:30am 14.1 NW 22 31 1006.6 - 0.0 - - - - - - -
31/10:10am 14.1 WNW 23 33 1006.8 - 0.0 - - - - - - -
31/10:00am 14.3 NW 21 29 1007.0 - 0.0 - - - - - - -
31/09:55am 14.2 NW 21 31 1007.0 - 0.0 - - - - - - -
31/09:30am 13.9 WNW 20 29 1007.4 - 0.0 - - - - - - -
31/09:00am 13.3 WNW 18 26 1007.7 - 0.0 - - - - - - -
31/08:30am 12.9 NW 14 21 1008.2 - 0.0 - - - - - - -
31/08:00am 12.7 NW 13 19 1008.2 - 0.0 - - - - - - -
31/07:30am 12.3 NW 15 20 1008.2 - 0.0 - - - - - - -
31/07:00am 11.5 NW 13 16 1008.5 - 0.0 - - - - - - -
31/06:30am 11.6 NW 13 17 1008.5 - 0.0 - - - - - - -
31/06:00am 11.3 NW 10 14 1008.3 - 0.0 - - - - - - -
31/05:30am 11.3 WNW 12 18 1008.4 - 0.0 - - - - - - -
31/05:00am 11.4 WNW 13 21 1008.2 - 0.0 - - - - - - -
31/04:30am 11.4 WNW 12 18 1008.3 - 0.0 - - - - - - -
31/04:00am 11.5 WNW 13 18 1008.7 - 0.0 - - - - - - -
31/03:30am 11.5 WNW 15 20 1008.9 - 0.0 - - - - - - -
31/03:00am 11.7 NW 13 19 1009.0 - 0.0 - - - - - - -
31/02:30am 11.7 NW 11 15 1009.4 - 0.0 - - - - - - -
31/02:00am 11.9 WNW 15 21 1009.4 - 0.0 - - - - - - -
31/01:30am 12.2 WNW 13 16 1009.6 - 0.0 - - - - - - -
31/01:00am 12.4 WNW 12 16 1009.6 - 0.0 - - - - - - -
31/12:30am 12.5 WNW 8 11 1009.8 - 0.0 - - - - - - -
31/12:00am 12.8 W 12 19 1010.0 - 0.0 - - - - - - -
 
Date/Time
EDT
Temp

°C
Wind Pressure Rain
since 9am
mm
Weather Cloud Vis
km
Sea
Height
m
Swell
Dir
 
Speed
knots
Gust
knots
hPa Trend Height
m
Period
s
Dir
30/11:30pm 12.7 W 10 14 1010.2 - 0.0 - - - - - - -
30/11:00pm 12.8 W 11 16 1010.4 - 0.0 - - - - - - -
30/10:30pm 12.9 WNW 10 14 1010.2 - 0.0 - - - - - - -
30/10:00pm 12.9 WNW 11 16 1010.1 - 0.0 - - - - - - -
30/09:30pm 13.0 WNW 16 21 1009.9 - 0.0 - - - - - - -
30/09:00pm 13.3 WNW 17 21 1009.7 - 0.0 - - - - - - -
30/08:30pm 13.5 WNW 18 25 1009.5 - 0.0 - - - - - - -
30/08:00pm 13.9 WNW 20 27 1009.2 - 0.0 - - - - - - -
30/07:30pm 14.3 WNW 19 26 1008.8 - 0.0 - - - - - - -
30/07:00pm 14.7 WNW 23 32 1008.8 - 0.0 - - - - - - -
30/06:36pm 15.2 WNW 22 32 1008.5 - 0.0 - - - - - - -
30/06:30pm 15.2 NW 23 31 1008.5 - 0.0 - - - - - - -
30/06:23pm 15.3 WNW 19 29 1008.6 - 0.0 - - - - - - -
30/06:00pm 15.8 WNW 20 28 1008.7 - 0.0 - - - - - - -
30/05:40pm 16.5 WNW 16 26 1009.0 - 0.0 - - - - - - -
30/05:30pm 16.5 WNW 19 26 1008.9 - 0.0 - - - - - - -
30/05:18pm 16.8 WNW 18 28 1008.9 - 0.0 - - - - - - -
30/05:00pm 17.0 WNW 20 27 1008.5 - 0.0 - - - - - - -
30/04:30pm 17.0 WNW 21 27 1008.5 - 0.0 - - - - - - -
30/04:00pm 16.9 WNW 21 29 1008.4 - 0.0 - - - - - - -
30/03:32pm 16.6 NW 21 31 1008.3 - 0.0 - - - - - - -
30/03:30pm 16.8 NW 21 30 1008.2 - 0.0 - - - - - - -
30/03:00pm 17.5 NW 22 29 1008.5 - 0.0 - - - - - - -
30/02:50pm 17.4 WNW 19 29 1008.5 - 0.0 - - - - - - -
30/02:30pm 17.2 NW 22 28 1008.5 - 0.0 - - - - - - -
30/02:01pm 17.2 NW 21 31 1008.6 - 0.0 - - - - - - -
30/02:00pm 17.2 NW 21 29 1008.6 - 0.0 - - - - - - -
30/01:44pm 17.7 NW 19 29 1008.8 - 0.0 - - - - - - -
30/01:30pm 17.5 WNW 21 29 1009.0 - 0.0 - - - - - - -
30/01:00pm 17.1 NW 20 30 1008.8 - 0.0 - - - - - - -
30/12:30pm 17.4 NW 20 31 1008.8 - 0.0 - - - - - - -
30/12:01pm 16.2 WNW 20 31 1009.2 - 0.0 - - - - - - -
30/12:00pm 16.3 WNW 20 29 1009.2 - 0.0 - - - - - - -
30/11:39am 15.9 WNW 19 30 1009.3 - 0.0 - - - - - - -
30/11:30am 15.9 WNW 18 26 1009.3 - 0.0 - - - - - - -
30/11:16am 17.1 WNW 17 29 1009.3 - 0.0 - - - - - - -
30/11:00am 16.7 WNW 19 27 1009.5 - 0.0 - - - - - - -
30/10:53am 16.6 WNW 17 27 1009.8 - 0.0 - - - - - - -
30/10:30am 16.6 WNW 17 25 1009.8 - 0.0 - - - - - - -
30/10:23am 16.2 WNW 15 25 1009.8 - 0.0 - - - - - - -
30/10:00am 15.8 WNW 18 26 1009.8 - 0.0 - - - - - - -
30/09:47am 15.8 WNW 16 26 1009.8 - 0.0 - - - - - - -
30/09:30am 15.1 W 13 22 1010.0 - 0.0 - - - - - - -
30/09:00am 14.4 W 11 19 1010.2 - 0.0 - - - - - - -
30/08:30am 13.6 W 10 17 1010.1 - 0.0 - - - - - - -
30/08:00am 13.4 WNW 14 22 1009.6 - 0.0 - - - - - - -
30/07:30am 12.7 WNW 17 27 1009.5 - 0.0 - - - - - - -
30/07:18am 12.4 WNW 18 28 1009.1 - 0.0 - - - - - - -
30/07:00am 11.8 WNW 18 25 1008.8 - 0.0 - - - - - - -
30/06:30am 11.7 WNW 21 29 1008.5 - 0.0 - - - - - - -
30/06:00am 11.8 NW 23 31 1008.0 - 0.0 - - - - - - -
30/05:30am 12.0 WNW 22 29 1007.9 - 0.0 - - - - - - -
30/05:17am 12.1 WNW 21 31 1007.8 - 0.0 - - - - - - -
30/05:00am 12.2 WNW 21 29 1008.0 - 0.0 - - - - - - -
30/04:41am 12.1 WNW 16 26 1008.1 - 0.0 - - - - - - -
30/04:30am 12.0 WNW 16 25 1008.2 - 0.0 - - - - - - -
30/04:07am 12.0 WNW 15 25 1008.3 - 0.0 - - - - - - -
30/04:00am 12.0 WNW 14 22 1008.4 - 0.0 - - - - - - -
30/03:30am 12.2 NW 13 21 1008.5 - 0.0 - - - - - - -
30/03:00am 12.1 WNW 12 17 1008.6 - 0.0 - - - - - - -
30/02:30am 12.1 WNW 14 20 1008.6 - 0.0 - - - - - - -
30/02:00am 12.2 WNW 15 24 1008.6 - 0.0 - - - - - - -
30/01:31am 12.2 WNW 17 27 1008.6 - 0.0 - - - - - - -
30/01:30am 12.3 WNW 18 27 1008.6 - 0.0 - - - - - - -
30/01:00am 12.3 WNW 14 22 1009.3 - 0.0 - - - - - - -
30/12:30am 12.7 WNW 13 22 1009.5 - 0.0 - - - - - - -
30/12:00am 13.0 WNW 13 19 1009.7 - 0.0 - - - - - - -
 
Date/Time
EDT
Temp

°C
Wind Pressure Rain
since 9am
mm
Weather Cloud Vis
km
Sea
Height
m
Swell
Dir
 
Speed
knots
Gust
knots
hPa Trend Height
m
Period
s
Dir
29/11:30pm 12.9 WNW 9 15 1009.9 - 0.0 - - - - - - -
29/11:00pm 13.1 WNW 11 18 1010.0 - 0.0 - - - - - - -
29/10:30pm 12.9 W 14 22 1010.0 - 0.0 - - - - - - -
29/10:00pm 12.8 WNW 16 26 1010.0 - 0.0 - - - - - - -
29/09:53pm 12.9 WNW 16 26 1010.0 - 0.0 - - - - - - -
29/09:30pm 12.8 WNW 13 21 1010.2 - 0.0 - - - - - - -
29/09:00pm 13.0 WNW 15 24 1010.2 - 0.0 - - - - - - -
29/08:30pm 12.8 W 16 24 1009.9 - 0.0 - - - - - - -
29/08:13pm 13.0 WNW 17 27 1009.8 - 0.0 - - - - - - -
29/08:00pm 13.0 WNW 20 27 1009.7 - 0.0 - - - - - - -
29/07:30pm 13.4 WNW 22 33 1009.4 - 0.0 - - - - - - -
29/07:00pm 13.9 WNW 24 36 1008.7 - 0.0 - - - - - - -
29/06:30pm 14.6 WNW 24 35 1008.6 - 0.0 - - - - - - -
29/06:00pm 14.7 WNW 27 39 1008.5 - 0.0 - - - - - - -
29/05:30pm 15.2 WNW 24 34 1008.5 - 0.0 - - - - - - -
29/05:00pm 15.6 WNW 24 35 1008.9 - 0.0 - - - - - - -
29/04:30pm 16.2 WNW 21 31 1009.0 - 0.0 - - - - - - -
29/04:00pm 16.0 WNW 25 37 1009.2 - 0.0 - - - - - - -
29/03:30pm 16.3 WNW 28 43 1009.4 - 0.0 - - - - - - -
29/03:03pm 16.6 WNW 26 36 1009.7 - 0.0 - - - - - - -
29/03:00pm 15.5 WNW 28 36 1009.7 - 0.0 - - - - - - -
29/02:30pm 15.7 WNW 26 36 1010.1 - 0.0 - - - - - - -
29/02:00pm 16.3 WNW 21 31 1010.7 - 0.0 - - - - - - -
29/01:30pm 15.8 WNW 26 36 1011.0 - 0.0 - - - - - - -
29/01:00pm 16.4 WNW 23 35 1011.3 - 0.0 - - - - - - -
29/12:30pm 16.3 WNW 21 31 1011.4 - 0.0 - - - - - - -
29/12:07pm 16.7 NW 18 28 1011.5 - 0.0 - - - - - - -
29/12:00pm 16.8 W 14 22 1011.7 - 0.0 - - - - - - -
29/11:30am 16.5 WNW 15 25 1011.8 - 0.0 - - - - - - -
29/11:29am 16.4 WNW 15 25 1011.8 - 0.0 - - - - - - -
29/11:00am 16.2 WNW 15 23 1012.0 - 0.0 - - - - - - -
29/10:30am 15.3 WNW 13 19 1012.4 - 0.0 - - - - - - -
29/10:00am 14.5 WNW 15 22 1012.6 - 0.0 - - - - - - -
29/09:30am 13.5 WNW 12 17 1012.3 - 0.0 - - - - - - -
29/09:00am 12.4 W 15 21 1012.5 - 0.0 - - - - - - -
29/08:30am 11.4 W 17 24 1012.3 - 0.0 - - - - - - -
29/08:00am 10.2 W 20 29 1011.8 - 0.0 - - - - - - -
29/07:30am 9.4 W 19 26 1012.1 - 0.0 - - - - - - -
29/07:00am 8.4 W 16 22 1012.0 - 0.0 - - - - - - -
29/06:30am 7.2 WNW 13 19 1011.7 - 0.0 - - - - - - -
29/06:00am 6.9 W 12 17 1011.4 - 0.0 - - - - - - -
29/05:30am 7.2 W 14 20 1010.9 - 0.0 - - - - - - -
29/05:00am 6.9 WNW 12 16 1010.6 - 0.0 - - - - - - -

Other Formats:

Comma delimited format used in spreadsheet applications
http://www.bom.gov.au/fwo/IDT60701/IDT60701.94983.axf

JavaScript Object Notation format (JSON) in row-major order
http://www.bom.gov.au/fwo/IDT60701/IDT60701.94983.json